createdAt,value
2019-02-22T00:02:09.239Z,87.00
2019-02-22T00:04:36.633Z,87.10
2019-02-22T00:07:04.226Z,87.10
2019-02-22T00:09:31.411Z,87.10
2019-02-22T00:11:58.812Z,87.20
2019-02-22T00:14:26.182Z,87.20
2019-02-22T00:16:53.304Z,87.30
2019-02-22T00:19:22.015Z,87.40
2019-02-22T00:21:49.287Z,87.30
2019-02-22T00:24:16.674Z,87.40
2019-02-22T00:26:44.063Z,87.40
2019-02-22T00:29:11.308Z,87.50
2019-02-22T00:31:38.652Z,87.50
2019-02-22T00:34:06.010Z,87.60
2019-02-22T00:36:33.347Z,87.60
2019-02-22T00:39:00.754Z,87.60
2019-02-22T00:41:28.018Z,87.80
2019-02-22T00:43:55.237Z,87.90
2019-02-22T00:46:22.469Z,87.90
2019-02-22T00:48:49.693Z,88.00
2019-02-22T00:51:17.557Z,88.00
2019-02-22T00:53:44.824Z,87.90
2019-02-22T00:56:12.212Z,87.90
2019-02-22T00:58:39.590Z,87.90
2019-02-22T01:01:06.934Z,88.00
2019-02-22T01:03:34.313Z,88.20
2019-02-22T01:06:01.572Z,88.20
2019-02-22T01:08:29.009Z,88.20
2019-02-22T01:10:56.125Z,89.40
2019-02-22T01:13:23.502Z,89.20
2019-02-22T01:15:50.490Z,89.50
2019-02-22T01:18:17.738Z,89.40
2019-02-22T01:20:54.004Z,89.10
2019-02-22T01:23:14.263Z,89.20
2019-02-22T01:25:41.445Z,90.00
2019-02-22T01:28:08.801Z,89.50
2019-02-22T01:30:36.070Z,89.80
2019-02-22T01:33:03.310Z,89.90
2019-02-22T01:35:30.652Z,89.70
2019-02-22T01:37:58.014Z,89.50
2019-02-22T01:40:25.292Z,89.90
2019-02-22T01:42:52.400Z,89.80
2019-02-22T01:45:19.613Z,89.70
2019-02-22T01:47:47.364Z,90.80
2019-02-22T01:50:22.679Z,90.80
2019-02-22T01:52:50.387Z,91.10
2019-02-22T01:55:17.803Z,90.80
2019-02-22T01:57:45.344Z,90.90
2019-02-22T02:00:12.553Z,91.30
2019-02-22T02:02:40.295Z,90.70
2019-02-22T02:05:07.663Z,90.80
2019-02-22T02:07:34.922Z,91.30
2019-02-22T02:10:04.106Z,90.70
2019-02-22T02:12:32.578Z,90.80
2019-02-22T02:14:59.808Z,91.20
2019-02-22T02:17:27.015Z,91.40
2019-02-22T02:19:54.455Z,91.30
2019-02-22T02:22:30.720Z,91.40
2019-02-22T02:24:58.953Z,91.20
2019-02-22T02:27:26.252Z,91.10
2019-02-22T02:29:53.608Z,91.10
2019-02-22T02:32:21.205Z,91.10
2019-02-22T02:34:48.487Z,91.00
2019-02-22T02:37:15.770Z,91.10
2019-02-22T02:39:42.948Z,90.70
2019-02-22T02:42:10.286Z,91.00
2019-02-22T02:44:38.202Z,90.90
2019-02-22T02:47:05.304Z,90.70
2019-02-22T02:49:32.381Z,90.70
2019-02-22T02:51:59.646Z,90.70
2019-02-22T02:54:26.974Z,90.80
2019-02-22T02:56:54.147Z,90.90
2019-02-22T02:59:21.440Z,90.60
2019-02-22T03:01:48.835Z,90.60
2019-02-22T03:04:16.375Z,90.50
2019-02-22T03:07:18.375Z,90.40
2019-02-22T03:09:45.729Z,91.20
2019-02-22T03:12:13.110Z,90.70
2019-02-22T03:14:40.617Z,90.60
2019-02-22T03:17:07.871Z,90.60
2019-02-22T03:19:34.969Z,90.90
2019-02-22T03:22:02.224Z,91.00
2019-02-22T03:24:29.296Z,90.70
2019-02-22T03:26:56.521Z,90.60
2019-02-22T03:29:23.812Z,90.80
2019-02-22T03:31:50.912Z,90.50
2019-02-22T03:34:18.026Z,90.80
2019-02-22T03:36:45.397Z,91.00
2019-02-22T03:39:12.658Z,91.30
2019-02-22T03:41:40.050Z,91.90
2019-02-22T03:44:07.045Z,92.00
2019-02-22T03:46:34.402Z,92.30
2019-02-22T03:49:01.903Z,92.00
2019-02-22T03:51:29.468Z,92.00
2019-02-22T03:53:59.549Z,92.30
2019-02-22T03:56:26.821Z,91.70
2019-02-22T03:58:53.935Z,92.40
2019-02-22T04:01:22.592Z,92.70
2019-02-22T04:03:49.968Z,92.90
2019-02-22T04:06:17.531Z,92.90
2019-02-22T04:08:44.881Z,93.00
2019-02-22T04:11:12.126Z,92.80
2019-02-22T04:13:39.363Z,92.70
2019-02-22T04:16:07.697Z,92.70
2019-02-22T04:18:36.226Z,92.60
2019-02-22T04:21:03.475Z,93.30
2019-02-22T04:23:30.733Z,93.40
2019-02-22T04:25:58.335Z,92.90
2019-02-22T04:28:26.538Z,93.70
2019-02-22T04:30:53.743Z,93.80
2019-02-22T04:33:20.986Z,93.90
2019-02-22T04:35:48.124Z,93.90
2019-02-22T04:38:15.389Z,94.00
2019-02-22T04:40:42.753Z,94.20
2019-02-22T04:43:10.135Z,94.30
2019-02-22T04:45:37.408Z,94.30
2019-02-22T04:48:04.891Z,94.80
2019-02-22T04:50:32.106Z,94.50
2019-02-22T04:52:59.628Z,94.60
2019-02-22T04:55:29.295Z,94.90
2019-02-22T04:57:55.964Z,95.20
2019-02-22T05:00:23.363Z,95.10
2019-02-22T05:02:50.592Z,95.30
2019-02-22T05:05:19.065Z,95.60
2019-02-22T05:07:46.544Z,95.60
2019-02-22T05:10:13.809Z,95.90
2019-02-22T05:12:41.443Z,96.30
2019-02-22T05:15:12.410Z,96.40
2019-02-22T05:17:37.812Z,96.80
2019-02-22T05:20:05.442Z,96.80
2019-02-22T05:22:33.294Z,97.00
2019-02-22T05:25:00.759Z,97.30
2019-02-22T05:27:28.306Z,97.40
2019-02-22T05:29:55.618Z,97.40
2019-02-22T05:32:22.882Z,97.20
2019-02-22T05:34:50.172Z,97.50
2019-02-22T05:37:17.257Z,97.70
2019-02-22T05:39:44.498Z,97.70
2019-02-22T05:42:22.273Z,97.90
2019-02-22T05:44:41.035Z,97.80
2019-02-22T05:47:08.442Z,98.20
2019-02-22T05:49:36.055Z,97.90
2019-02-22T05:52:03.257Z,98.70
2019-02-22T05:54:30.710Z,98.80
2019-02-22T05:56:58.212Z,98.70
2019-02-22T05:59:25.637Z,98.60
2019-02-22T06:01:53.114Z,98.40
2019-02-22T06:04:20.813Z,98.70
2019-02-22T06:06:48.198Z,98.90
2019-02-22T06:09:15.884Z,98.60
2019-02-22T06:11:43.023Z,98.80
2019-02-22T06:14:10.304Z,99.10
2019-02-22T06:16:43.970Z,99.00
2019-02-22T06:19:12.095Z,99.40
2019-02-22T06:21:39.457Z,99.40
2019-02-22T06:24:07.695Z,99.20
2019-02-22T06:26:34.967Z,99.40
2019-02-22T06:29:02.190Z,99.40
2019-02-22T06:31:29.564Z,99.40
2019-02-22T06:33:56.795Z,99.40
2019-02-22T06:36:24.174Z,99.40
2019-02-22T06:38:51.586Z,99.40
2019-02-22T06:41:18.782Z,99.40
2019-02-22T06:43:46.160Z,99.40
2019-02-22T06:46:13.486Z,99.40
2019-02-22T06:48:40.773Z,99.40
2019-02-22T06:51:07.915Z,99.40
2019-02-22T06:53:35.304Z,99.40
2019-02-22T06:56:02.635Z,99.40
2019-02-22T06:58:29.911Z,99.40
2019-02-22T07:00:57.126Z,99.40
2019-02-22T07:03:24.396Z,99.40
2019-02-22T07:05:51.666Z,99.40
2019-02-22T07:08:18.904Z,99.40
2019-02-22T07:11:04.445Z,99.40
2019-02-22T07:13:31.641Z,99.40
2019-02-22T07:15:59.251Z,99.40
2019-02-22T07:18:26.497Z,99.40
2019-02-22T07:20:53.764Z,99.40
2019-02-22T07:23:21.149Z,99.40
2019-02-22T07:25:48.576Z,99.40
2019-02-22T07:28:15.868Z,99.40
2019-02-22T07:30:43.238Z,99.40
2019-02-22T07:33:10.631Z,99.40
2019-02-22T07:35:37.861Z,99.40
2019-02-22T07:38:05.334Z,99.40
2019-02-22T07:40:32.649Z,99.40
2019-02-22T07:43:07.742Z,99.40
2019-02-22T07:45:28.895Z,99.40
2019-02-22T07:47:56.151Z,99.40
2019-02-22T07:50:23.550Z,99.40
2019-02-22T07:52:51.142Z,99.40
2019-02-22T07:55:18.571Z,99.40
2019-02-22T07:57:45.867Z,99.40
2019-02-22T08:00:13.332Z,99.40
2019-02-22T08:02:40.541Z,99.40
2019-02-22T08:05:09.210Z,99.40
2019-02-22T08:07:37.785Z,99.40
2019-02-22T08:10:05.154Z,99.40
2019-02-22T08:12:32.525Z,99.40
2019-02-22T08:15:01.024Z,99.40
2019-02-22T08:17:28.217Z,99.40
2019-02-22T08:19:55.549Z,99.40
2019-02-22T08:22:23.043Z,99.40
2019-02-22T08:24:50.416Z,99.40
2019-02-22T08:27:17.789Z,99.40
2019-02-22T08:29:44.990Z,99.40
2019-02-22T08:32:12.789Z,99.40
2019-02-22T08:34:39.957Z,99.40
2019-02-22T08:37:07.475Z,99.40
2019-02-22T08:39:35.056Z,99.40
2019-02-22T08:42:02.444Z,99.40
2019-02-22T08:44:29.797Z,99.40
2019-02-22T08:46:57.202Z,99.40
2019-02-22T08:49:24.690Z,99.40
2019-02-22T08:51:51.973Z,99.40
2019-02-22T08:54:19.259Z,99.40
2019-02-22T08:56:46.506Z,99.40
2019-02-22T08:59:13.785Z,99.40
2019-02-22T09:01:41.191Z,99.40
2019-02-22T09:04:08.383Z,99.40
2019-02-22T09:06:36.088Z,99.40
2019-02-22T09:09:04.776Z,99.40
2019-02-22T09:11:33.965Z,99.30
2019-02-22T09:14:01.831Z,99.00
2019-02-22T09:16:29.343Z,99.10
2019-02-22T09:18:56.715Z,99.20
2019-02-22T09:21:24.349Z,98.50
2019-02-22T09:23:51.565Z,98.40
2019-02-22T09:26:18.891Z,98.50
2019-02-22T09:28:46.273Z,98.80
2019-02-22T09:31:13.633Z,97.90
2019-02-22T09:33:40.736Z,98.10
2019-02-22T09:36:08.139Z,97.90
2019-02-22T09:38:35.466Z,97.30
2019-02-22T09:41:02.688Z,97.00
2019-02-22T09:43:29.899Z,97.00
2019-02-22T09:45:57.233Z,96.40
2019-02-22T09:48:24.380Z,96.60
2019-02-22T09:50:51.766Z,96.00
2019-02-22T09:53:20.130Z,95.80
2019-02-22T09:55:47.410Z,96.10
2019-02-22T09:58:14.725Z,96.30
2019-02-22T10:00:42.157Z,96.60
2019-02-22T10:03:09.681Z,96.10
2019-02-22T10:05:36.945Z,96.10
2019-02-22T10:08:04.290Z,96.60
2019-02-22T10:10:31.537Z,96.10
2019-02-22T10:12:58.979Z,96.30
2019-02-22T10:15:26.237Z,96.40
2019-02-22T10:17:53.698Z,96.70
2019-02-22T10:20:20.900Z,95.80
2019-02-22T10:22:48.250Z,95.70
2019-02-22T10:25:15.603Z,95.80
2019-02-22T10:27:43.240Z,94.90
2019-02-22T10:30:10.801Z,94.70
2019-02-22T10:32:38.371Z,94.50
2019-02-22T10:35:06.310Z,94.40
2019-02-22T10:37:34.913Z,94.80
2019-02-22T10:40:02.130Z,94.90
2019-02-22T10:42:29.999Z,93.60
2019-02-22T10:44:57.381Z,92.90
2019-02-22T10:47:24.782Z,92.10
2019-02-22T10:49:52.034Z,92.20
2019-02-22T10:52:19.574Z,90.30
2019-02-22T10:54:47.084Z,91.50
2019-02-22T10:57:14.457Z,90.10
2019-02-22T10:59:41.844Z,90.10
2019-02-22T11:02:09.168Z,89.70
2019-02-22T11:04:37.876Z,89.60
2019-02-22T11:07:05.280Z,88.80
2019-02-22T11:09:32.529Z,88.20
2019-02-22T11:11:59.761Z,89.00
2019-02-22T11:14:29.409Z,89.20
2019-02-22T11:16:56.181Z,88.90
2019-02-22T11:19:23.437Z,87.70
2019-02-22T11:21:50.733Z,87.10
2019-02-22T11:24:19.948Z,88.00
2019-02-22T11:26:47.043Z,88.00
2019-02-22T11:29:14.688Z,87.50
2019-02-22T11:31:42.064Z,88.30
2019-02-22T11:34:09.557Z,87.70
2019-02-22T11:36:36.744Z,87.00
2019-02-22T11:39:05.156Z,86.80
2019-02-22T11:41:34.456Z,85.40
2019-02-22T11:44:01.910Z,84.60
2019-02-22T11:46:30.467Z,85.00
2019-02-22T11:48:57.755Z,83.90
2019-02-22T11:51:24.946Z,82.70
2019-02-22T11:53:52.425Z,80.40
2019-02-22T11:56:20.083Z,80.90
2019-02-22T11:58:47.504Z,81.30
2019-02-22T12:01:15.075Z,80.10
2019-02-22T12:03:42.461Z,79.70
2019-02-22T12:06:09.899Z,76.60
2019-02-22T12:08:37.121Z,79.40
2019-02-22T12:11:05.034Z,78.20
2019-02-22T12:13:32.487Z,78.40
2019-02-22T12:15:59.862Z,77.50
2019-02-22T12:18:27.384Z,76.30
2019-02-22T12:20:54.770Z,75.90
2019-02-22T12:23:21.918Z,75.60
2019-02-22T12:25:49.198Z,76.40
2019-02-22T12:28:17.566Z,76.60
2019-02-22T12:30:44.887Z,77.20
2019-02-22T12:33:12.444Z,78.50
2019-02-22T12:35:39.689Z,77.70
2019-02-22T12:38:06.887Z,76.10
2019-02-22T12:40:34.156Z,75.70
2019-02-22T12:43:01.505Z,77.00
2019-02-22T12:45:28.797Z,76.70
2019-02-22T12:47:56.219Z,77.20
2019-02-22T12:50:23.554Z,77.30
2019-02-22T12:52:51.267Z,76.80
2019-02-22T12:55:18.536Z,76.80
2019-02-22T12:57:45.744Z,77.40
2019-02-22T13:00:13.270Z,77.90
2019-02-22T13:02:40.592Z,77.20
2019-02-22T13:05:10.059Z,77.80
2019-02-22T13:07:37.540Z,76.80
2019-02-22T13:10:07.162Z,76.50
2019-02-22T13:12:34.519Z,76.60
2019-02-22T13:15:02.262Z,76.80
2019-02-22T13:17:31.041Z,77.00
2019-02-22T13:19:58.758Z,76.60
2019-02-22T13:22:26.153Z,75.50
2019-02-22T13:24:53.560Z,76.10
2019-02-22T13:27:21.932Z,76.20
2019-02-22T13:29:49.348Z,75.90
2019-02-22T13:32:16.716Z,74.50
2019-02-22T13:34:43.894Z,74.00
2019-02-22T13:37:11.457Z,74.30
2019-02-22T13:39:38.809Z,73.80
2019-02-22T13:42:06.198Z,73.50
2019-02-22T13:44:33.460Z,73.50
2019-02-22T13:47:00.895Z,74.20
2019-02-22T13:49:28.537Z,73.90
2019-02-22T13:51:55.951Z,74.40
2019-02-22T13:54:23.184Z,75.10
2019-02-22T13:56:50.536Z,74.30
2019-02-22T13:59:17.698Z,74.70
2019-02-22T14:01:45.073Z,74.90
2019-02-22T14:04:12.349Z,74.20
2019-02-22T14:06:40.007Z,74.30
2019-02-22T14:09:10.205Z,74.30
2019-02-22T14:11:38.243Z,74.60
2019-02-22T14:14:05.459Z,74.20
2019-02-22T14:16:32.713Z,73.70
2019-02-22T14:19:00.063Z,74.30
2019-02-22T14:21:27.316Z,74.20
2019-02-22T14:23:54.592Z,74.00
2019-02-22T14:26:21.846Z,74.10
2019-02-22T14:28:49.175Z,74.60
2019-02-22T14:31:16.555Z,74.80
2019-02-22T14:33:43.801Z,74.60
2019-02-22T14:36:11.089Z,75.10
2019-02-22T14:38:38.585Z,75.10
2019-02-22T14:41:06.209Z,74.70
2019-02-22T14:43:33.532Z,75.00
2019-02-22T14:46:01.463Z,75.20
2019-02-22T14:48:28.790Z,75.00
2019-02-22T14:50:56.023Z,75.10
2019-02-22T14:53:23.469Z,74.50
2019-02-22T14:55:50.880Z,74.60
2019-02-22T14:58:18.314Z,74.80
2019-02-22T15:00:45.853Z,74.80
2019-02-22T15:03:13.108Z,74.40
2019-02-22T15:05:40.532Z,74.60
2019-02-22T15:08:07.682Z,74.90
2019-02-22T15:10:34.949Z,74.90
2019-02-22T15:13:02.852Z,75.20
2019-02-22T15:15:40.292Z,74.90
2019-02-22T15:18:07.486Z,74.80
2019-02-22T15:20:34.710Z,74.40
2019-02-22T15:23:03.197Z,74.80
2019-02-22T15:25:31.905Z,74.70
2019-02-22T15:28:00.061Z,74.40
2019-02-22T15:30:27.412Z,74.30
2019-02-22T15:32:54.944Z,73.90
2019-02-22T15:35:22.134Z,74.00
2019-02-22T15:37:49.498Z,74.00
2019-02-22T15:40:16.724Z,73.80
2019-02-22T15:42:44.486Z,73.90
2019-02-22T15:45:12.334Z,73.90
2019-02-22T15:47:39.757Z,73.40
2019-02-22T15:50:09.308Z,73.80
2019-02-22T15:52:36.994Z,73.80
2019-02-22T15:55:06.096Z,73.60
2019-02-22T15:57:33.603Z,73.80
2019-02-22T16:00:00.946Z,74.30
2019-02-22T16:02:28.161Z,73.90
2019-02-22T16:05:06.646Z,73.90
2019-02-22T16:07:44.314Z,73.70
2019-02-22T16:10:04.689Z,73.80
2019-02-22T16:12:33.772Z,73.90
2019-02-22T16:15:01.046Z,74.20
2019-02-22T16:17:28.839Z,74.20
2019-02-22T16:19:56.195Z,74.20
2019-02-22T16:22:23.421Z,74.20
2019-02-22T16:24:50.676Z,74.80
2019-02-22T16:27:19.364Z,74.60
2019-02-22T16:29:47.070Z,74.70
2019-02-22T16:32:14.450Z,74.90
2019-02-22T16:34:43.667Z,74.90
2019-02-22T16:37:11.049Z,75.10
2019-02-22T16:39:38.321Z,74.90
2019-02-22T16:42:05.675Z,75.10
2019-02-22T16:44:33.294Z,75.40
2019-02-22T16:47:00.529Z,75.30
2019-02-22T16:49:27.770Z,75.80
2019-02-22T16:51:54.984Z,75.60
2019-02-22T16:54:22.360Z,76.00
2019-02-22T16:56:49.540Z,75.80
2019-02-22T16:59:16.932Z,75.90
2019-02-22T17:01:44.170Z,76.10
2019-02-22T17:04:11.426Z,75.90
2019-02-22T17:06:38.623Z,76.00
2019-02-22T17:09:06.172Z,76.10
2019-02-22T17:11:34.900Z,76.70
2019-02-22T17:14:02.013Z,76.60
2019-02-22T17:16:29.359Z,76.20
2019-02-22T17:18:56.445Z,76.60
2019-02-22T17:21:23.827Z,76.90
2019-02-22T17:23:51.192Z,76.60
2019-02-22T17:26:18.689Z,76.70
2019-02-22T17:28:45.951Z,77.20
2019-02-22T17:31:13.464Z,77.60
2019-02-22T17:33:40.679Z,77.00
2019-02-22T17:36:07.923Z,76.60
2019-02-22T17:38:35.136Z,76.90
2019-02-22T17:41:02.256Z,76.90
2019-02-22T17:43:29.604Z,77.10
2019-02-22T17:45:56.597Z,78.10
2019-02-22T17:48:24.176Z,77.60
2019-02-22T17:50:51.438Z,78.20
2019-02-22T17:53:18.824Z,78.50
2019-02-22T17:55:46.035Z,79.30
2019-02-22T17:58:23.712Z,79.40
2019-02-22T18:00:42.519Z,79.60
2019-02-22T18:03:09.838Z,79.40
2019-02-22T18:05:37.092Z,79.80
2019-02-22T18:08:04.306Z,79.90
2019-02-22T18:10:31.553Z,79.80
2019-02-22T18:12:58.536Z,80.10
2019-02-22T18:15:25.974Z,80.30
2019-02-22T18:17:53.209Z,80.60
2019-02-22T18:20:20.452Z,80.60
2019-02-22T18:22:47.712Z,80.80
2019-02-22T18:25:15.310Z,81.10
2019-02-22T18:27:42.691Z,81.50
2019-02-22T18:30:10.733Z,81.60
2019-02-22T18:32:38.088Z,82.00
2019-02-22T18:35:06.411Z,82.20
2019-02-22T18:37:34.667Z,82.10
2019-02-22T18:40:01.985Z,82.20
2019-02-22T18:42:29.459Z,82.10
2019-02-22T18:44:56.711Z,82.70
2019-02-22T18:47:26.230Z,82.60
2019-02-22T18:49:53.317Z,82.50
2019-02-22T18:52:20.554Z,83.00
2019-02-22T18:54:47.783Z,82.90
2019-02-22T18:57:15.344Z,83.00
2019-02-22T18:59:42.578Z,83.40
2019-02-22T19:02:09.825Z,83.30
2019-02-22T19:04:37.188Z,83.10
2019-02-22T19:07:04.529Z,83.20
2019-02-22T19:09:31.879Z,83.40
2019-02-22T19:11:58.987Z,83.40
2019-02-22T19:14:26.358Z,83.50
2019-02-22T19:16:53.785Z,83.70
2019-02-22T19:19:21.155Z,83.70
2019-02-22T19:21:48.432Z,83.80
2019-02-22T19:24:15.846Z,83.80
2019-02-22T19:26:43.104Z,83.90
2019-02-22T19:29:10.361Z,84.00
2019-02-22T19:31:37.597Z,84.30
2019-02-22T19:34:04.702Z,84.40
2019-02-22T19:36:32.119Z,84.30
2019-02-22T19:38:59.362Z,84.50
2019-02-22T19:41:26.388Z,84.60
2019-02-22T19:43:53.771Z,84.50
2019-02-22T19:46:20.996Z,84.80
2019-02-22T19:48:48.458Z,85.00
2019-02-22T19:51:15.855Z,84.90
2019-02-22T19:53:43.180Z,84.90
2019-02-22T19:56:10.564Z,85.00
2019-02-22T19:58:37.957Z,85.10
2019-02-22T20:01:05.191Z,85.40
2019-02-22T20:03:32.673Z,85.30
2019-02-22T20:06:00.067Z,85.50
2019-02-22T20:08:27.815Z,85.20
2019-02-22T20:10:55.192Z,85.10
2019-02-22T20:13:22.514Z,85.60
2019-02-22T20:15:49.762Z,86.10
2019-02-22T20:18:16.925Z,86.10
2019-02-22T20:20:44.232Z,86.10
2019-02-22T20:23:11.308Z,86.10
2019-02-22T20:25:38.773Z,86.10
2019-02-22T20:28:06.093Z,86.20
2019-02-22T20:30:33.477Z,86.60
2019-02-22T20:33:01.320Z,86.60
2019-02-22T20:35:28.795Z,86.80
2019-02-22T20:37:56.512Z,86.30
2019-02-22T20:40:23.968Z,86.00
2019-02-22T20:42:51.449Z,86.10
2019-02-22T20:45:20.005Z,86.10
2019-02-22T20:47:48.103Z,86.20
2019-02-22T20:50:16.581Z,86.60
2019-02-22T20:52:43.800Z,86.70
2019-02-22T20:55:12.099Z,86.50
2019-02-22T20:57:39.374Z,86.70
2019-02-22T21:00:09.767Z,86.80
2019-02-22T21:02:37.181Z,86.60
2019-02-22T21:05:05.417Z,87.00
2019-02-22T21:07:32.530Z,87.20
2019-02-22T21:09:59.553Z,86.80
2019-02-22T21:12:26.742Z,87.00
2019-02-22T21:14:54.122Z,87.00
2019-02-22T21:17:21.345Z,87.20
2019-02-22T21:19:48.589Z,87.20
2019-02-22T21:22:16.106Z,87.40
2019-02-22T21:24:43.289Z,87.50
2019-02-22T21:27:10.618Z,87.70
2019-02-22T21:29:39.190Z,87.60
2019-02-22T21:32:06.593Z,87.80
2019-02-22T21:34:33.950Z,87.90
2019-02-22T21:37:01.853Z,88.10
2019-02-22T21:39:29.210Z,88.30
2019-02-22T21:41:56.459Z,88.20
2019-02-22T21:44:24.041Z,88.20
2019-02-22T21:46:51.229Z,88.30
2019-02-22T21:49:19.673Z,88.00
2019-02-22T21:51:46.858Z,87.90
2019-02-22T21:54:14.095Z,87.90
2019-02-22T21:56:41.461Z,88.10
2019-02-22T21:59:08.700Z,88.20
2019-02-22T22:01:35.941Z,88.70
2019-02-22T22:04:03.194Z,88.90
2019-02-22T22:06:30.315Z,89.10
2019-02-22T22:08:57.603Z,90.80
2019-02-22T22:11:24.737Z,90.80
2019-02-22T22:13:52.045Z,90.00
2019-02-22T22:16:19.126Z,93.20
2019-02-22T22:18:46.232Z,94.10
2019-02-22T22:21:13.594Z,93.70
2019-02-22T22:23:40.801Z,94.00
2019-02-22T22:26:10.234Z,93.80
2019-02-22T22:28:37.313Z,93.20
2019-02-22T22:31:04.536Z,93.40
2019-02-22T22:33:31.756Z,93.40
2019-02-22T22:35:59.119Z,93.20
2019-02-22T22:38:26.444Z,92.90
2019-02-22T22:40:53.713Z,92.70
2019-02-22T22:43:20.982Z,92.60
2019-02-22T22:45:48.236Z,92.40
2019-02-22T22:48:15.754Z,92.20
2019-02-22T22:50:42.965Z,92.10
2019-02-22T22:53:10.583Z,92.10
2019-02-22T22:55:37.673Z,92.20
2019-02-22T22:58:05.057Z,91.90
2019-02-22T23:00:58.070Z,91.70
2019-02-22T23:03:25.677Z,91.70
2019-02-22T23:05:52.887Z,91.60
2019-02-22T23:08:20.483Z,91.50
2019-02-22T23:10:48.906Z,91.30
2019-02-22T23:13:16.113Z,91.10
2019-02-22T23:15:43.597Z,91.10
2019-02-22T23:18:11.079Z,91.10
2019-02-22T23:20:38.466Z,91.20
2019-02-22T23:23:06.044Z,91.00
2019-02-22T23:25:33.537Z,91.10
2019-02-22T23:28:01.631Z,91.00
2019-02-22T23:30:28.960Z,90.90
2019-02-22T23:32:56.372Z,90.90
2019-02-22T23:35:23.581Z,90.90
2019-02-22T23:37:50.920Z,90.80
2019-02-22T23:40:19.392Z,90.70
2019-02-22T23:42:46.932Z,90.80
2019-02-22T23:45:14.263Z,90.80
2019-02-22T23:47:41.757Z,90.80
2019-02-22T23:50:09.343Z,90.90
2019-02-22T23:52:36.609Z,90.90
2019-02-22T23:55:03.849Z,90.80
2019-02-22T23:57:31.236Z,90.70
2019-02-22T23:59:58.491Z,90.70
